Nearby METAR Reports

 

KHCR - Heber/Russ Mcdon, Utah, USA
Distance from station: SSW 18mi, 29km
Updated: Thu, 06-Oct-2022 8:30pm MDT
Clear
Clear
 Wind from E
Wind: E 6 mph , 9 km/h
Temperature: 54°F , 12°C
Dew Point: 30°F , -1°C
Humidity: 41%
Barometer: 30.28 inHg , 1025.4 hPa
Clouds: Clear
Visibility: 10 miles , 16 km
2022/10/07 02:30 KHCR 070230Z AUTO 10005KT 10SM CLR 12/M01 A3028 RMK AO2
KSLC - Salt Lake City, Utah, USA
Distance from station: W 35mi, 57km
Updated: Thu, 06-Oct-2022 8:54pm MDT
Clear
Clear
 Wind from calm
Wind: Calm
Temperature: 64°F , 18°C
Dew Point: 39°F , 4°C
Humidity: 40%
Barometer: 30.23 inHg , 1023.7 hPa
Clouds: Clear
Visibility: 10 miles , 16 km
2022/10/07 02:54 KSLC 070254Z 00000KT 10SM CLR 18/04 A3023 RMK AO2 SLP201 T01830039 53006
 
KU42 - Salt Lake Muni, Utah, USA
Distance from station: WSW 37mi, 59km
Updated: Thu, 06-Oct-2022 8:55pm MDT
Clear
Clear
 Wind from ENE
Wind: ENE 3 mph , 6 km/h
Temperature: 59°F , 15°C
Dew Point: 39°F , 4°C
Humidity: 48%
Barometer: 30.27 inHg , 1025.1 hPa
Clouds: Clear
Visibility: 10 miles , 16 km
2022/10/07 02:55 KU42 070255Z AUTO 07003KT 10SM CLR 15/04 A3027 RMK AO1 T01520035
KEVW - Evanston, Wyoming, USA
Distance from station: NNE 40mi, 64km
Updated: Thu, 06-Oct-2022 8:53pm MDT
Clear
Clear
 Wind from ENE
Wind: ENE 7 mph , 11 km/h
Temperature: 55°F , 13°C
Dew Point: 21°F , -6°C
Humidity: 26%
Barometer: 30.39 inHg , 1029.1 hPa
Clouds: Clear
Visibility: 10 miles , 16 km
2022/10/07 02:53 KEVW 070253Z AUTO 07006KT 10SM CLR 13/M06 A3039 RMK AO2 SLP230 T01331056 53007
 
KPVU - Provo Muni, Utah, USA
Distance from station: SSW 41mi, 67km
Updated: Thu, 06-Oct-2022 8:56pm MDT
Clear
Clear
 Wind from N
Wind: N 3 mph , 6 km/h
Temperature: 63°F , 17°C
Dew Point: 43°F , 6°C
Humidity: 49%
Barometer: 30.25 inHg , 1024.4 hPa
Clouds: Clear
Visibility: 10 miles , 16 km
2022/10/07 02:56 KPVU 070256Z 01003KT 10SM CLR 17/06 A3025 RMK AO2 SLP214 T01720056 53008
KHIF - Hill Afb/Ogden, Utah, USA
Distance from station: NW 45mi, 72km
Updated: Thu, 06-Oct-2022 8:55pm MDT
Clear
Clear
 Wind from E
Wind: E 7 mph , 11 km/h
Temperature: 63°F , 17°C
Dew Point: 37°F , 3°C
Humidity: 39%
Barometer: 30.24 inHg , 1024 hPa
Clouds: Clear
Visibility: 10 miles , 16 km
2022/10/07 02:55 KHIF 070255Z AUTO 10006KT 10SM CLR 17/03 A3024 RMK AO2 SLP208 T01670027 53004
 
KOGD - Ogden, Utah, USA
Distance from station: NW 50mi, 81km
Updated: Thu, 06-Oct-2022 8:53pm MDT
Clear
Clear
 Wind from S
Wind: S 6 mph , 9 km/h
Temperature: 63°F , 17°C
Dew Point: 37°F , 3°C
Humidity: 39%
Barometer: 30.24 inHg , 1024 hPa
Clouds: Clear
Visibility: 10 miles , 16 km
2022/10/07 02:53 KOGD 070253Z AUTO 18005KT 10SM CLR 17/03 A3024 RMK AO2 SLP203 T01670033 53004